Davenport Center, New York
Current Conditions -  °F | °C
As of 12:15 PM on Wednesday 26 Nov 2014 (Local Time) from KNY0 Reporting Station
Overcast Overcast  
Wind Chill: 25°   Ceiling: 500
Heat Index: 29°   Visibility: 0.5mi
Dew Point: 28°   Wind: 5mph
Humidity: 96%   Direction: 40°NE
Pressure: 30.11"   Gusts: NA
Location:  42.45°N, 74.92°W
Report Text: KNY0 261715Z AUTO 04004KT 1/2SM BKN005 OVC010 M01/M02 A3011 RMK AO2 P0001 T10141020
Loading
Personal Weather Stations






























Interactive Weather Map New forecast layout! Learn more

10-Day Weather Forecast

Advertisements
Track Severe Weather on mobile